Flight Track Log - Related Links

Times and Time Zones

All times are in EST time to prevent confusion due to time zone crossing. See the AWE728 flight status page for this flight to view local times or setup timezone preferences in your user account.

Time Position Orientation Groundspeed Altitude Reporting Facility
EST Latitude Longitude Course Direction KTS MPH feet Rate Location/Type
Sun 09:36:00 PM 40.5579 -74.1383 50° Northeast  Level Estimated
Sun 09:37:00 PM 40.6428 -73.9989 51° Northeast  Level Estimated
Sun 09:38:00 PM 40.7276 -73.8592 51° Northeast  Level Estimated
Sun 09:39:00 PM 40.8122 -73.7191 51° Northeast  Level Estimated
Sun 09:40:00 PM 40.8967 -73.5786 51° Northeast  Level Estimated
Sun 09:41:00 PM 40.9810 -73.4378 52° Northeast  Level Estimated
Sun 09:42:00 PM 41.0651 -73.2966 52° Northeast  Level Estimated
Sun 09:43:00 PM 41.1490 -73.1551 52° Northeast  Level Estimated
Sun 09:44:00 PM 41.2328 -73.0132 52° Northeast  Level Estimated
Sun 09:45:00 PM 41.3164 -72.8709 52° Northeast  Level Estimated
Sun 09:46:00 PM 41.3998 -72.7283 52° Northeast  Level Estimated
Sun 09:47:00 PM 41.4830 -72.5853 52° Northeast  Level Estimated
Sun 09:48:00 PM 41.5661 -72.4419 52° Northeast  Level Estimated
Sun 09:49:00 PM 41.6489 -72.2982 52° Northeast  Level Estimated
Sun 09:50:00 PM 41.7317 -72.1541 52° Northeast  Level Estimated
Sun 09:51:00 PM 41.8142 -72.0096 53° Northeast  Level Estimated
Sun 09:52:00 PM 41.8965 -71.8648 53° Northeast  Level Estimated
Sun 09:53:00 PM 41.9787 -71.7195 53° Northeast  Level Estimated
Sun 09:54:00 PM 42.0653 -71.5657 53° Northeast  Level Estimated
Sun 09:55:00 PM 42.1517 -71.4114 53° Northeast  Level Estimated
Sun 09:56:00 PM 42.2379 -71.2567 53° Northeast  Level Estimated
Sun 09:57:00 PM 42.3238 -71.1016 53° Northeast  Level Estimated
Sun 09:58:00 PM 42.4108 -70.9439 53° Northeast  Level Estimated
Sun 09:58:51 PM 40.4696 -70.6078 53° Northeast 552 635 38,100  Level FlightAware ADS-B
Sun 09:59:30 PM 40.4945 -70.4806 76° East 555 639 38,300 519 Climbing FlightAware ADS-B
Sun 10:00:35 PM 40.5352 -70.2719 76° East 551 634 39,000 404 Climbing FlightAware ADS-B
Sun 10:01:14 PM 40.5598 -70.1445 76° East 548 631 39,000  Level FlightAware ADS-B
Sun 10:01:47 PM 40.5802 -70.0383 76° East 546 628 39,000  Level FlightAware ADS-B
Sun 10:02:51 PM 40.6188 -69.8354 76° East 544 626 39,000  Level FlightAware ADS-B
Sun 10:03:30 PM 40.6429 -69.7076 76° East 546 628 39,000  Level FlightAware ADS-B
Sun 10:04:04 PM 40.6582 -69.6264 76° East 546 628 39,000  Level FlightAware ADS-B (ESTA / AGH)
Sun 10:05:05 PM 40.6730 -69.5471 76° East 546 628 39,000  Level FlightAware ADS-B (ESTA / AGH)
Sun 10:06:09 PM 40.7360 -69.2064 76° East 544 626 39,000  Level FlightAware ADS-B (ESTA / AGH)
Sun 10:06:40 PM 40.7557 -69.0980 76° East 546 628 39,000  Level FlightAware ADS-B
Sun 10:07:22 PM 40.7807 -68.9605 76° East 545 627 39,000  Level FlightAware ADS-B
Sun 10:12:05 PM 40.9425 -68.0424 77° East 545 627 39,000  Level FlightAware ADS-B
Sun 10:16:26 PM 41.0845 -67.1966 77° East 546 628 39,000  Level FlightAware ADS-B
Sun 10:16:56 PM 41.0905 -67.1597 78° East 546 628 39,000  Level FlightAware ADS-B
Sun 10:17:26 PM 41.1168 -66.9985 78° East 546 628 39,000  Level FlightAware ADS-B
Sun 10:17:38 PM 41.1167 -67.0000 78° East 554 638 39,000  Level New York Oceanic (ODAPS)
Sun 10:18:10 PM 41.1333 -66.8667 78° East 551 634 39,000  Level New York Oceanic (ODAPS)
Sun 10:18:46 PM 41.1579 -66.7370 78° East 547 629 39,000  Level FlightAware ADS-B
Sun 10:19:25 PM 41.1770 -66.6138 78° East 548 631 39,000  Level FlightAware ADS-B
Sun 10:19:56 PM 41.1935 -66.5069 78° East 548 631 39,000  Level FlightAware ADS-B
Sun 10:20:26 PM 41.2091 -66.4051 78° East 549 632 39,000  Level FlightAware ADS-B
Sun 10:20:56 PM 41.2225 -66.3177 78° East 550 633 39,000  Level FlightAware ADS-B
Sun 10:21:26 PM 41.2392 -66.2075 79° East 550 633 39,000  Level FlightAware ADS-B
Sun 10:22:06 PM 41.2551 -66.1024 79° East 550 633 39,000  Level FlightAware ADS-B
Sun 10:22:36 PM 41.2737 -65.9778 79° East 548 631 39,000  Level FlightAware ADS-B
Sun 10:23:06 PM 41.2875 -65.8846 78° East 547 629 39,000  Level FlightAware ADS-B
Sun 10:23:36 PM 41.3012 -65.7919 79° East 548 631 39,000  Level FlightAware ADS-B
Sun 10:24:06 PM 41.3178 -65.6789 79° East 549 632 39,000  Level FlightAware ADS-B
Sun 10:24:36 PM 41.3319 -65.5829 79° East 549 632 39,000  Level FlightAware ADS-B
Sun 10:25:06 PM 41.3458 -65.4869 79° East 550 633 39,000  Level FlightAware ADS-B
Sun 10:25:44 PM 41.3638 -65.3618 79° East 551 634 39,000  Level FlightAware ADS-B
Sun 10:26:14 PM 41.3780 -65.2616 79° East 551 634 39,000  Level FlightAware ADS-B
Sun 10:27:25 PM 41.4106 -65.0310 79° East 550 633 39,000  Level FlightAware ADS-B
Sun 10:29:06 PM 41.4566 -64.6991 54° Northeast 548 631 39,000  Level FlightAware ADS-B
Sun 10:29:36 PM 41.4712 -64.5922 80° East 549 632 39,000  Level FlightAware ADS-B
Sun 10:30:06 PM 41.4854 -64.4873 80° East 550 633 39,000  Level FlightAware ADS-B
Sun 10:30:46 PM 41.5033 -64.3546 80° East 550 633 39,000  Level FlightAware ADS-B
Sun 10:31:16 PM 41.5165 -64.2552 80° East 551 634 39,000  Level FlightAware ADS-B
Sun 10:31:46 PM 41.5299 -64.1545 80° East 552 635 39,000  Level FlightAware ADS-B
Sun 10:32:34 PM 41.5503 -63.9992 80° East 549 632 39,000  Level FlightAware ADS-B
Sun 10:33:52 PM 41.5826 -63.7501 80° East 549 632 39,000  Level FlightAware ADS-B
Sun 10:38:26 PM 41.7000 -62.8333 81° East 547 629 39,000 31 Level New York Oceanic (ODAPS)
Sun 11:06:33 PM 42.0000 -60.0000 71° East 570 656 40,000 28 Climbing New York Oceanic (ODAPS)
Sun 11:14:34 PM 43.0000 -55.6167 74° East 570 656 40,000  Level New York Oceanic (ODAPS)
Sun 11:19:10 PM 43.1833 -54.6667 75° East 569 655 40,000  Level New York Oceanic (ODAPS)
Sun 11:26:52 PM 43.5000 -53.0667 76° East 568 654 40,000  Level New York Oceanic (ODAPS)
Sun 11:34:50 PM 43.7833 -51.4167 78° East 565 650 40,000  Level New York Oceanic (ODAPS)
Sun 11:41:34 PM 44.0000 -50.0000 71° East 585 673 40,000  Level New York Oceanic (ODAPS)
Sun 11:42:00 PM 44.0526 -49.7904 71° East 565 650 40,000  Level FlightAware Transoceanic
Sun 11:43:00 PM 44.1047 -49.5804 71° East 565 650 40,000  Level FlightAware Transoceanic
Sun 11:44:00 PM 44.1565 -49.3700 71° East 565 650 40,000  Level FlightAware Transoceanic
Sun 11:45:00 PM 44.2079 -49.1593 71° East 565 650 40,000  Level FlightAware Transoceanic
Sun 11:46:00 PM 44.2589 -48.9482 71° East 565 650 40,000  Level FlightAware Transoceanic
Sun 11:47:00 PM 44.3095 -48.7367 72° East 585 673 40,000  Level FlightAware Transoceanic
Sun 11:48:00 PM 44.3598 -48.5249 72° East 585 673 40,000  Level FlightAware Transoceanic
Sun 11:49:00 PM 44.4096 -48.3127 72° East 585 673 40,000  Level FlightAware Transoceanic
Sun 11:50:00 PM 44.4590 -48.1001 72° East 585 673 40,000  Level FlightAware Transoceanic
Sun 11:51:00 PM 44.5081 -47.8872 72° East 585 673 40,000  Level FlightAware Transoceanic
Sun 11:52:00 PM 44.5567 -47.6739 72° East 585 673 40,000  Level FlightAware Transoceanic
Sun 11:53:00 PM 44.6050 -47.4603 72° East 585 673 40,000  Level FlightAware Transoceanic
Sun 11:54:00 PM 44.6529 -47.2463 73° East 585 673 40,000  Level FlightAware Transoceanic
Sun 11:55:00 PM 44.7003 -47.0320 73° East 585 673 40,000  Level FlightAware Transoceanic
Sun 11:56:00 PM 44.7474 -46.8173 73° East 585 673 40,000  Level FlightAware Transoceanic
Sun 11:57:00 PM 44.7940 -46.6023 73° East 585 673 40,000  Level FlightAware Transoceanic
Sun 11:58:00 PM 44.8403 -46.3869 73° East 585 673 40,000  Level FlightAware Transoceanic
Sun 11:59:00 PM 44.8861 -46.1712 73° East 585 673 40,000  Level FlightAware Transoceanic
Mon 12:00:00 AM 44.9315 -45.9551 74° East 585 673 40,000  Level FlightAware Transoceanic
Mon 12:01:00 AM 44.9766 -45.7387 74° East 585 673 40,000  Level FlightAware Transoceanic
Mon 12:02:00 AM 45.0212 -45.5220 74° East 585 673 40,000  Level FlightAware Transoceanic
Mon 12:03:00 AM 45.0654 -45.3049 74° East 585 673 40,000  Level FlightAware Transoceanic
Mon 12:04:00 AM 45.1092 -45.0875 74° East 585 673 40,000  Level FlightAware Transoceanic
Mon 12:05:00 AM 45.1526 -44.8698 74° East 585 673 40,000  Level FlightAware Transoceanic
Mon 12:06:00 AM 45.1955 -44.6517 74° East 585 673 40,000  Level FlightAware Transoceanic
Mon 12:07:00 AM 45.2381 -44.4333 75° East 585 673 40,000  Level FlightAware Transoceanic
Mon 12:08:00 AM 45.2802 -44.2145 75° East 585 673 40,000  Level FlightAware Transoceanic
Mon 12:09:00 AM 45.3219 -43.9955 75° East 585 673 40,000  Level FlightAware Transoceanic
Mon 12:10:00 AM 45.3632 -43.7761 75° East 585 673 40,000  Level FlightAware Transoceanic
Mon 12:11:00 AM 45.4041 -43.5564 75° East 585 673 40,000  Level FlightAware Transoceanic
Mon 12:12:00 AM 45.4446 -43.3364 75° East 585 673 40,000  Level FlightAware Transoceanic
Mon 12:13:00 AM 45.4846 -43.1161 76° East 585 673 40,000  Level FlightAware Transoceanic
Mon 12:14:00 AM 45.5242 -42.8955 76° East 585 673 40,000  Level FlightAware Transoceanic
Mon 12:15:00 AM 45.5634 -42.6745 76° East 585 673 40,000  Level FlightAware Transoceanic
Mon 12:16:00 AM 45.6021 -42.4533 76° East 585 673 40,000  Level FlightAware Transoceanic
Mon 12:17:00 AM 45.6405 -42.2317 76° East 585 673 40,000  Level FlightAware Transoceanic
Mon 12:18:00 AM 45.6784 -42.0098 76° East 585 673 40,000  Level FlightAware Transoceanic
Mon 12:19:00 AM 45.7159 -41.7877 77° East 585 673 40,000  Level FlightAware Transoceanic
Mon 12:20:00 AM 45.7529 -41.5652 77° East 585 673 40,000  Level FlightAware Transoceanic
Mon 12:21:00 AM 45.7895 -41.3425 77° East 585 673 40,000  Level FlightAware Transoceanic
Mon 12:22:00 AM 45.8257 -41.1195 77° East 585 673 40,000  Level FlightAware Transoceanic
Mon 12:23:00 AM 45.8614 -40.8961 77° East 585 673 40,000  Level FlightAware Transoceanic
Mon 12:24:00 AM 45.8967 -40.6725 77° East 585 673 40,000  Level FlightAware Transoceanic
Mon 12:25:00 AM 45.9316 -40.4486 77° East 585 673 40,000  Level FlightAware Transoceanic
Mon 12:26:00 AM 45.9660 -40.2244 78° East 585 673 40,000  Level FlightAware Transoceanic
Mon 12:27:00 AM 46.0000 -40.0000 78° East 585 673 40,000  Level FlightAware Transoceanic
Mon 12:28:00 AM 46.0323 -39.7773 78° East 585 673 40,000  Level FlightAware Transoceanic
Mon 12:29:00 AM 46.0642 -39.5544 78° East 585 673 40,000  Level FlightAware Transoceanic
Mon 12:30:00 AM 46.0956 -39.3312 79° East 585 673 40,000  Level FlightAware Transoceanic
Mon 12:31:00 AM 46.1266 -39.1078 79° East 585 673 40,000  Level FlightAware Transoceanic
Mon 12:32:00 AM 46.1571 -38.8841 79° East 585 673 40,000  Level FlightAware Transoceanic
Mon 12:33:00 AM 46.1873 -38.6601 79° East 585 673 40,000  Level FlightAware Transoceanic
Mon 12:34:00 AM 46.2169 -38.4359 79° East 585 673 40,000  Level FlightAware Transoceanic
Mon 12:35:00 AM 46.2462 -38.2115 79° East 585 673 40,000  Level FlightAware Transoceanic
Mon 12:36:00 AM 46.2750 -37.9869 80° East 585 673 40,000  Level FlightAware Transoceanic
Mon 12:37:00 AM 46.3033 -37.7620 80° East 585 673 40,000  Level FlightAware Transoceanic
Mon 12:38:00 AM 46.3313 -37.5368 80° East 585 673 40,000  Level FlightAware Transoceanic
Mon 12:39:00 AM 46.3588 -37.3115 80° East 585 673 40,000  Level FlightAware Transoceanic
Mon 12:40:00 AM 46.3858 -37.0859 80° East 585 673 40,000  Level FlightAware Transoceanic
Mon 12:41:00 AM 46.4124 -36.8601 80° East 585 673 40,000  Level FlightAware Transoceanic
Mon 12:42:00 AM 46.4385 -36.6341 81° East 585 673 40,000  Level FlightAware Transoceanic
Mon 12:43:00 AM 46.4642 -36.4078 81° East 585 673 40,000  Level FlightAware Transoceanic
Mon 12:44:00 AM 46.4895 -36.1814 81° East 585 673 40,000  Level FlightAware Transoceanic
Mon 12:45:00 AM 46.5143 -35.9547 81° East 585 673 40,000  Level FlightAware Transoceanic
Mon 12:46:00 AM 46.0000 -40.0000 78° East 568 654 40,000  Level ETMS Enhanced Traffic Management System
Mon 01:24:00 AM 47.0000 -30.0000 78° East 491 565 40,000  Level ETMS Enhanced Traffic Management System
Mon 01:25:00 AM 47.9171 -26.9776 68° East  Level Estimated
Mon 01:26:00 AM 47.9769 -26.7524 68° East  Level Estimated
Mon 01:27:00 AM 48.0362 -26.5268 68° East  Level Estimated
Mon 01:28:00 AM 48.0951 -26.3006 69° East  Level Estimated
Mon 01:29:00 AM 48.1536 -26.0739 69° East  Level Estimated
Mon 01:30:00 AM 47.3898 -28.6874 66° East  Level Estimated
Mon 01:31:00 AM 47.4533 -28.4668 67° East  Level Estimated
Mon 01:32:00 AM 47.5164 -28.2456 67° East  Level Estimated
Mon 01:33:00 AM 47.5790 -28.0240 67° East  Level Estimated
Mon 01:34:00 AM 47.6412 -27.8017 67° East  Level Estimated
Mon 01:35:00 AM 47.7030 -27.5790 68° East  Level Estimated
Mon 01:36:00 AM 47.7644 -27.3557 68° East  Level Estimated
Mon 01:37:00 AM 47.8253 -27.1319 68° East  Level Estimated
Mon 01:38:00 AM 47.8858 -26.9076 68° East  Level Estimated
Mon 01:39:00 AM 47.9458 -26.6827 68° East  Level Estimated
Mon 01:40:00 AM 48.0055 -26.4573 68° East  Level Estimated
Mon 01:41:00 AM 48.0646 -26.2315 69° East  Level Estimated
Mon 01:42:00 AM 48.1233 -26.0051 69° East  Level Estimated
Mon 01:43:00 AM 48.1816 -25.7781 69° East  Level Estimated
Mon 01:44:00 AM 48.2394 -25.5507 69° East  Level Estimated
Mon 01:45:00 AM 48.2968 -25.3227 69° East  Level Estimated
Mon 01:46:00 AM 48.3538 -25.0943 69° East  Level Estimated
Mon 01:47:00 AM 48.4102 -24.8653 70° East  Level Estimated
Mon 01:48:00 AM 48.4663 -24.6358 70° East  Level Estimated
Mon 01:49:00 AM 48.5218 -24.4058 70° East  Level Estimated
Mon 01:50:00 AM 48.5769 -24.1753 70° East  Level Estimated
Mon 01:51:00 AM 48.6316 -23.9443 70° East  Level Estimated
Mon 01:52:00 AM 48.6857 -23.7129 70° East  Level Estimated
Mon 01:53:00 AM 48.7395 -23.4809 71° East  Level Estimated
Mon 01:54:00 AM 48.7927 -23.2484 71° East  Level Estimated
Mon 01:55:00 AM 48.8455 -23.0154 71° East  Level Estimated
Mon 01:56:00 AM 48.8978 -22.7820 71° East  Level Estimated
Mon 01:57:00 AM 48.9496 -22.5480 71° East  Level Estimated
Mon 01:58:00 AM 49.0010 -22.3136 71° East  Level Estimated
Mon 01:59:00 AM 49.0519 -22.0787 72° East  Level Estimated
Mon 02:00:00 AM 49.1023 -21.8433 72° East  Level Estimated
Mon 02:01:00 AM 49.1522 -21.6074 72° East  Level Estimated
Mon 02:02:00 AM 49.2017 -21.3711 72° East  Level Estimated
Mon 02:03:00 AM 49.2504 -21.1356 72° East  Level Estimated
Mon 02:04:00 AM 49.2986 -20.8997 73° East  Level Estimated
Mon 02:05:00 AM 49.3463 -20.6634 73° East  Level Estimated
Mon 02:06:00 AM 49.3935 -20.4266 73° East  Level Estimated
Mon 02:07:00 AM 49.4403 -20.1893 73° East  Level Estimated
Mon 02:08:00 AM 49.4865 -19.9516 73° East  Level Estimated
Mon 02:09:00 AM 49.5323 -19.7135 73° East  Level Estimated
Mon 02:10:00 AM 49.5776 -19.4749 74° East  Level Estimated
Mon 02:11:00 AM 49.6224 -19.2358 74° East  Level Estimated
Mon 02:12:00 AM 49.6667 -18.9963 74° East  Level Estimated
Mon 02:13:00 AM 49.7105 -18.7564 74° East  Level Estimated
Mon 02:14:00 AM 49.7538 -18.5161 74° East  Level Estimated
Mon 02:15:00 AM 49.7967 -18.2753 75° East  Level Estimated
Mon 02:16:00 AM 49.8390 -18.0341 75° East  Level Estimated
Mon 02:17:00 AM 49.8808 -17.7925 75° East  Level Estimated
Mon 02:18:00 AM 49.9221 -17.5505 75° East  Level Estimated
Mon 02:19:00 AM 49.9629 -17.3080 75° East  Level Estimated
Mon 02:20:00 AM 50.0032 -17.0652 75° East  Level Estimated
Mon 02:21:00 AM 50.0430 -16.8219 76° East  Level Estimated
Mon 02:22:00 AM 50.0823 -16.5783 76° East  Level Estimated
Mon 02:23:00 AM 50.1211 -16.3342 76° East  Level Estimated
Mon 02:24:00 AM 50.1593 -16.0897 76° East  Level Estimated
Mon 02:25:00 AM 50.1971 -15.8449 76° East  Level Estimated
Mon 02:26:00 AM 50.2343 -15.5997 77° East  Level Estimated
Mon 02:27:00 AM 50.2710 -15.3541 77° East  Level Estimated
Mon 02:28:00 AM 50.3072 -15.1081 77° East  Level Estimated
Mon 02:29:00 AM 50.3429 -14.8617 77° East  Level Estimated
Mon 02:30:00 AM 50.3781 -14.6150 77° East  Level Estimated
Mon 02:31:00 AM 50.4127 -14.3680 78° East  Level Estimated
Mon 02:32:00 AM 50.4468 -14.1205 78° East  Level Estimated
Mon 02:33:00 AM 50.4804 -13.8727 78° East  Level Estimated
Mon 02:34:00 AM 50.5134 -13.6246 78° East  Level Estimated
Mon 02:35:00 AM 50.5460 -13.3761 78° East  Level Estimated
Mon 02:36:00 AM 50.5780 -13.1272 78° East  Level Estimated
Mon 02:37:00 AM 50.6094 -12.8781 79° East  Level Estimated
Mon 02:38:00 AM 50.6404 -12.6286 79° East  Level Estimated
Mon 02:39:00 AM 50.6708 -12.3787 79° East  Level Estimated
Mon 02:40:00 AM 50.7006 -12.1286 79° East  Level Estimated
Mon 02:41:00 AM 50.7300 -11.8781 79° East  Level Estimated
Mon 02:42:00 AM 50.7588 -11.6274 80° East  Level Estimated
Mon 02:43:00 AM 50.7870 -11.3763 80° East  Level Estimated
Mon 02:44:00 AM 50.8147 -11.1249 80° East  Level Estimated
Mon 02:45:00 AM 50.8419 -10.8733 80° East  Level Estimated
Mon 02:46:00 AM 50.8685 -10.6213 80° East  Level Estimated
Mon 02:47:00 AM 50.8946 -10.3690 81° East  Level Estimated
Mon 02:48:00 AM 50.9202 -10.1165 81° East  Level Estimated
Mon 02:49:00 AM 50.9452 -9.8637 81° East  Level Estimated
Mon 02:50:00 AM 50.9697 -9.6106 81° East  Level Estimated
Mon 02:51:00 AM 50.9936 -9.3573 81° East  Level Estimated
Mon 02:52:00 AM 51.0169 -9.1037 82° East  Level Estimated
Mon 02:53:00 AM 51.0397 -8.8499 82° East  Level Estimated
Mon 02:54:00 AM 51.0620 -8.5958 82° East  Level Estimated
Mon 02:55:00 AM 51.0837 -8.3414 82° East  Level Estimated
Mon 02:55:38 AM 49.5219 -8.9969 82° East 494 568 40,000  Level FlightAware UK
Mon 02:56:08 AM 49.5377 -8.8935 77° East 494 568 40,000  Level FlightAware UK
Mon 02:56:38 AM 49.5617 -8.7959 69° East 494 568 40,000  Level FlightAware UK
Mon 02:57:08 AM 49.5811 -8.6948 73° East 496 571 40,000  Level FlightAware UK
Mon 02:57:38 AM 49.6014 -8.5941 73° East 496 571 40,000  Level FlightAware UK
Mon 02:58:08 AM 49.6216 -8.4930 73° East 498 573 40,000  Level FlightAware UK
Mon 02:58:38 AM 49.6418 -8.3918 73° East 498 573 40,000  Level FlightAware UK
Mon 02:59:08 AM 49.6630 -8.2910 72° East 498 573 40,000  Level FlightAware UK
Mon 02:59:38 AM 49.6818 -8.1884 74° East 498 573 40,000  Level FlightAware UK
Mon 03:00:08 AM 49.7027 -8.0871 72° East 498 573 40,000  Level FlightAware UK
Mon 03:00:38 AM 49.7245 -7.9854 72° East 498 573 40,000  Level FlightAware UK
Mon 03:01:08 AM 49.7464 -7.8846 71° East 498 573 40,000  Level FlightAware UK
Mon 03:01:38 AM 49.7671 -7.7830 72° East 496 571 40,000  Level FlightAware UK
Mon 03:02:08 AM 49.7896 -7.6827 71° East 498 573 40,000  Level FlightAware UK
Mon 03:02:38 AM 49.8106 -7.5812 72° East 498 573 40,000  Level FlightAware UK
Mon 03:03:08 AM 49.8327 -7.4805 71° East 498 573 40,000  Level FlightAware UK
Mon 03:03:38 AM 49.8539 -7.3789 72° East 500 575 40,000  Level FlightAware UK
Mon 03:04:02 AM 49.8702 -7.2975 72° East 501 577 40,000  Level FlightAware ADS-B (CYOW)
Mon 03:04:32 AM 49.8863 -7.2205 72° East 502 578 40,000  Level FlightAware ADS-B (CYOW)
Mon 03:05:06 AM 49.9139 -7.0869 72° East 505 581 40,000  Level FlightAware ADS-B (CYOW)
Mon 03:05:39 AM 49.9405 -6.9691 72° East 506 582 40,000  Level FlightAware UK
Mon 03:05:48 AM 49.9388 -6.9654 72° East 507 583 40,000  Level FlightAware ADS-B (CYOW)
Mon 03:06:39 AM 49.9834 -6.7615 72° East 508 585 40,000  Level FlightAware UK
Mon 03:07:09 AM 50.0022 -6.6548 75° East 508 585 40,000  Level FlightAware UK
Mon 03:07:19 AM 50.0089 -6.6202 75° East 498 573 40,000  Level FlightAware ADS-B (KSCH)
Mon 03:07:54 AM 50.0334 -6.4983 73° East 507 583 40,000  Level FlightAware ADS-B (KSCH)
Mon 03:08:25 AM 50.0550 -6.3901 73° East 509 586 40,000  Level FlightAware ADS-B (CYOW)
Mon 03:09:00 AM 50.0788 -6.2697 73° East 509 586 40,000  Level FlightAware ADS-B (KSCH)
Mon 03:09:31 AM 50.1006 -6.1589 73° East 509 586 40,000  Level FlightAware ADS-B (KSCH)
Mon 03:10:01 AM 50.1214 -6.0531 73° East 511 588 40,000  Level FlightAware ADS-B (CYOW)
Mon 03:10:33 AM 50.1425 -5.9453 73° East 512 589 40,000  Level FlightAware ADS-B (CYOW)
Mon 03:11:12 AM 50.1637 -5.8355 73° East 513 590 40,000  Level FlightAware ADS-B (CYOW)
Mon 03:11:44 AM 50.1648 -5.8300 73° East 514 592 40,000  Level FlightAware ADS-B (EGCW)
Mon 03:12:39 AM 50.2287 -5.4956 73° East 516 594 40,000  Level FlightAware UK
Mon 03:12:46 AM 50.2331 -5.4731 73° East 515 593 40,000  Level FlightAware ADS-B (KSCH)
Mon 03:13:28 AM 50.2620 -5.3200 73° East 515 593 40,000  Level FlightAware ADS-B (CYOW)
Mon 03:13:39 AM 50.2689 -5.2830 74° East 514 592 40,000  Level FlightAware ADS-B
Mon 03:14:00 AM 50.2834 -5.2057 74° East 514 592 40,000 -667 Level FlightAware ADS-B
Mon 03:14:33 AM 50.3050 -5.0894 74° East 514 592 39,400 -1,077 Descending FlightAware UK
Mon 03:14:39 AM 50.3090 -5.0680 74° East 512 589 39,300 -1,043 Descending FlightAware ADS-B
Mon 03:14:56 AM 50.3198 -5.0099 74° East 506 582 39,000 -750 Descending FlightAware ADS-B
Mon 03:15:03 AM 50.3244 -4.9851 74° East 504 580 39,000 -774 Level FlightAware ADS-B (KSCH)
Mon 03:15:27 AM 50.3397 -4.9021 74° East 500 575 38,600 -750 Descending FlightAware ADS-B (KSCH)
Mon 03:15:35 AM 50.3410 -4.8947 74° East 500 575 38,600 -1,200 Level FlightAware ADS-B (KSCH)
Mon 03:15:47 AM 50.3528 -4.8300 74° East 501 577 38,200 -1,355 Descending FlightAware ADS-B (KSCH)
Mon 03:16:06 AM 50.3648 -4.7646 74° East 505 581 37,900 -1,034 Descending FlightAware ADS-B
Mon 03:16:16 AM 50.3713 -4.7292 74° East 503 579 37,700 -833 Descending FlightAware ADS-B (EGHH / BOH)
Mon 03:16:42 AM 50.3875 -4.6403 74° East 503 579 37,400 -857 Descending FlightAware ADS-B (KSCH)
Mon 03:16:51 AM 50.3934 -4.6075 74° East 506 582 37,200 -923 Descending FlightAware ADS-B (EGHH / BOH)
Mon 03:17:21 AM 50.4062 -4.5366 74° East 514 592 36,800 -941 Descending FlightAware ADS-B (CYOW)
Mon 03:17:42 AM 50.4262 -4.4248 74° East 512 589 36,400 -1,313 Descending FlightAware ADS-B (EGHH / BOH)
Mon 03:17:53 AM 50.4326 -4.3890 74° East 512 589 36,100 -1,000 Descending FlightAware ADS-B (CYOW)
Mon 03:18:00 AM 50.4380 -4.3590 74° East 511 588 36,100 -240 Level FlightAware ADS-B
Mon 03:18:18 AM 50.4495 -4.2946 74° East 510 587 36,000 -182 Descending FlightAware ADS-B
Mon 03:18:33 AM 50.4590 -4.2411 74° East 510 587 36,000  Level FlightAware ADS-B
Mon 03:18:51 AM 50.4699 -4.1798 74° East 509 586 36,000  Level FlightAware ADS-B
Mon 03:19:05 AM 50.4785 -4.1305 75° East 511 588 36,000 -766 Level FlightAware ADS-B
Mon 03:19:38 AM 50.4992 -4.0125 75° East 504 580 35,400 -1,138 Descending FlightAware ADS-B
Mon 03:20:03 AM 50.5141 -3.9278 75° East 495 570 34,900 -2,276 Descending FlightAware ADS-B (CYOW)
Mon 03:20:07 AM 50.5171 -3.9108 75° East 495 570 34,300 -1,579 Descending FlightAware ADS-B (EGDX / DGX)
Mon 03:20:41 AM 50.5373 -3.7936 75° East 486 559 33,900 -686 Descending FlightAware ADS-B
Mon 03:20:42 AM 50.5377 -3.7917 73° East 485 558 33,900 -1,636 Level FlightAware ADS-B
Mon 03:20:52 AM 50.5436 -3.7578 75° East 485 558 33,600 -1,714 Descending FlightAware ADS-B (EGDX / DGX)
Mon 03:20:56 AM 50.5454 -3.7473 75° East 476 548 33,500 -1,333 Descending FlightAware ADS-B (KSCH)
Mon 03:21:01 AM 50.5488 -3.7272 75° East 473 544 33,400 -1,500 Descending FlightAware ADS-B (EGHH / BOH)
Mon 03:21:08 AM 50.5522 -3.7073 75° East 472 543 33,200 -1,500 Descending FlightAware ADS-B (CYOW)
Mon 03:21:13 AM 50.5556 -3.6876 75° East 474 545 33,100 -1,286 Descending FlightAware ADS-B
Mon 03:21:22 AM 50.5606 -3.6582 75° East 464 534 32,900 -938 Descending FlightAware ADS-B (EGHH / BOH)
Mon 03:21:45 AM 50.5731 -3.5856 75° East 456 525 32,600 -857 Descending FlightAware ADS-B
Mon 03:21:57 AM 50.5796 -3.5477 75° East 443 510 32,400 -968 Descending FlightAware ADS-B
Mon 03:22:16 AM 50.5894 -3.4902 75° East 435 501 32,100 -900 Descending FlightAware ADS-B
Mon 03:22:17 AM 50.5902 -3.4852 75° East 434 499 32,100 -1,833 Level FlightAware ADS-B
Mon 03:22:52 AM 50.6029 -3.4103 75° East 433 498 31,000 -1,800 Descending FlightAware ADS-B (EGCW)
Mon 03:22:57 AM 50.6105 -3.3653 75° East 431 496 30,900 -1,333 Descending FlightAware ADS-B
Mon 03:23:10 AM 50.6170 -3.3265 75° East 425 489 30,600 -1,333 Descending FlightAware ADS-B (KSCH)
Mon 03:23:33 AM 50.6286 -3.2581 75° East 421 484 30,100 -1,385 Descending FlightAware ADS-B
Mon 03:23:36 AM 50.6286 -3.2581 176° South 420 483 30,000 -1,200 Descending FlightAware ADS-B (EGDM)
Mon 03:23:43 AM 50.6333 -3.2300 75° East 416 479 29,900 -2,000 Descending FlightAware ADS-B (KSCH)
Mon 03:23:48 AM 50.6360 -3.2134 75° East 417 480 29,600 -1,875 Descending FlightAware ADS-B (EGHA)
Mon 03:23:59 AM 50.6415 -3.1810 75° East 413 475 29,400 -1,059 Descending FlightAware ADS-B (KSCH)
Mon 03:24:05 AM 50.6446 -3.1624 75° East 414 476 29,300 -1,286 Descending FlightAware ADS-B
Mon 03:24:13 AM 50.6484 -3.1395 75° East 412 474 29,100 -1,714 Descending FlightAware ADS-B (EGHA)
Mon 03:24:33 AM 50.6579 -3.0825 75° East 406 467 28,500 -1,750 Descending FlightAware ADS-B (LKVR)
Mon 03:24:37 AM 50.6598 -3.0705 76° East 408 470 28,400 -1,636 Descending FlightAware ADS-B
Mon 03:24:44 AM 50.6629 -3.0517 75° East 405 466 28,200 -1,622 Descending FlightAware ADS-B (LKVR)
Mon 03:25:14 AM 50.6767 -2.9682 75° East 402 463 27,400 -1,579 Descending FlightAware ADS-B (EGDM)
Mon 03:25:22 AM 50.6809 -2.9432 75° East 405 466 27,200 -1,043 Descending FlightAware ADS-B
Mon 03:25:37 AM 50.6878 -2.9009 76° East 397 457 27,000 -364 Descending FlightAware ADS-B
Mon 03:25:55 AM 50.6962 -2.8499 75° East 396 456 27,000 -214 Level FlightAware ADS-B (EGDM)
Mon 03:26:05 AM 50.7005 -2.8236 76° East 396 456 26,900 -375 Descending FlightAware ADS-B
Mon 03:26:11 AM 50.7033 -2.8064 75° East 398 458 26,900 -1,200 Level FlightAware ADS-B
Mon 03:26:35 AM 50.7137 -2.7429 76° East 392 451 26,300 -1,286 Descending FlightAware ADS-B
Mon 03:26:39 AM 50.7157 -2.7306 75° East 390 449 26,300 -1,333 Level FlightAware ADS-B (EGHH / BOH)
Mon 03:26:53 AM 50.7217 -2.6935 76° East 385 443 25,900 -1,000 Descending FlightAware ADS-B
Mon 03:26:57 AM 50.7226 -2.6878 76° East 385 443 26,000 -1,286 Climbing FlightAware ADS-B
Mon 03:27:07 AM 50.7283 -2.6527 76° East 385 443 25,600 -2,400 Descending FlightAware ADS-B (EGDX / DGX)
Mon 03:27:17 AM 50.7329 -2.6240 76° East 384 442 25,200 -2,308 Descending FlightAware ADS-B
Mon 03:27:20 AM 50.7341 -2.6170 76° East 384 442 25,100 -1,500 Descending FlightAware ADS-B
Mon 03:27:37 AM 50.7416 -2.5708 76° East 383 441 24,700 -1,600 Descending FlightAware ADS-B (EGHH / BOH)
Mon 03:27:50 AM 50.7455 -2.5351 80° East 381 438 24,300 -1,429 Descending FlightAware ADS-B (KSCH)
Mon 03:27:58 AM 50.7458 -2.5199 88° East 379 436 24,200 -1,667 Descending FlightAware ADS-B
Mon 03:28:08 AM 50.7431 -2.4860 97° East 372 428 23,800 -2,000 Descending FlightAware ADS-B
Mon 03:28:13 AM 50.7431 -2.4860 97° East 371 427 23,700 -1,200 Descending FlightAware ADS-B (EGHS)
Mon 03:28:18 AM 50.7383 -2.4591 106° East 369 425 23,600 -1,600 Descending FlightAware ADS-B
Mon 03:28:28 AM 50.7339 -2.4353 106° East 367 422 23,300 -1,273 Descending FlightAware ADS-B (EGHH / BOH)
Mon 03:28:51 AM 50.7228 -2.3754 106° East 363 418 22,900 -1,071 Descending FlightAware ADS-B
Mon 03:28:56 AM 50.7208 -2.3648 107° East 360 414 22,800 -1,500 Descending FlightAware ADS-B
Mon 03:28:59 AM 50.7188 -2.3547 107° East 359 413 22,700 -1,286 Descending FlightAware ADS-B (EGHH / BOH)
Mon 03:29:10 AM 50.7138 -2.3276 106° East 358 412 22,500 -1,043 Descending FlightAware ADS-B (LKVR)
Mon 03:29:22 AM 50.7082 -2.2980 107° East 354 407 22,300 -1,385 Descending FlightAware ADS-B
Mon 03:29:36 AM 50.7017 -2.2636 107° East 352 405 21,900 -1,548 Descending FlightAware ADS-B
Mon 03:29:53 AM 50.6938 -2.2219 107° East 353 406 21,500 -1,304 Descending FlightAware ADS-B
Mon 03:29:59 AM 50.6910 -2.2073 107° East 352 405 21,400 -1,161 Descending FlightAware ADS-B (EGHH / BOH)
Mon 03:30:24 AM 50.6794 -2.1465 107° East 350 403 20,900 -1,200 Descending FlightAware ADS-B
Mon 03:30:29 AM 50.6769 -2.1333 107° East 342 394 20,800 -1,200 Descending FlightAware ADS-B
Mon 03:30:39 AM 50.6724 -2.1101 107° East 340 391 20,600 -1,385 Descending FlightAware ADS-B
Mon 03:30:42 AM 50.6713 -2.1040 107° East 340 391 20,500 -1,500 Descending FlightAware ADS-B
Mon 03:30:55 AM 50.6654 -2.0736 107° East 340 391 20,200 -1,600 Descending FlightAware ADS-B
Mon 03:30:57 AM 50.6643 -2.0678 107° East 339 390 20,100 -1,364 Descending FlightAware ADS-B
Mon 03:31:17 AM 50.6558 -2.0237 107° East 339 390 19,700 -1,400 Descending FlightAware ADS-B
Mon 03:31:27 AM 50.6508 -1.9979 107° East 338 389 19,400 -1,714 Descending FlightAware ADS-B
Mon 03:31:31 AM 50.6489 -1.9879 106° East 336 387 19,300 -1,500 Descending FlightAware ADS-B
Mon 03:31:39 AM 50.6453 -1.9691 107° East 336 387 19,100 -1,286 Descending FlightAware ADS-B
Mon 03:31:45 AM 50.6424 -1.9542 107° East 337 388 19,000 -1,263 Descending FlightAware ADS-B (EGDM)
Mon 03:31:58 AM 50.6374 -1.9284 107° East 336 387 18,700 -1,429 Descending FlightAware ADS-B
Mon 03:32:06 AM 50.6333 -1.9072 107° East 336 387 18,500 -1,667 Descending FlightAware ADS-B
Mon 03:32:16 AM 50.6286 -1.8829 107° East 333 383 18,200 -1,161 Descending FlightAware ADS-B
Mon 03:32:37 AM 50.6193 -1.8351 107° East 327 376 17,900 -1,043 Descending FlightAware ADS-B
Mon 03:32:39 AM 50.6183 -1.8298 107° East 327 376 17,800 -1,714 Descending FlightAware ADS-B
Mon 03:32:51 AM 50.6134 -1.8027 106° East 326 375 17,500 -1,385 Descending FlightAware ADS-B
Mon 03:32:52 AM 50.6131 -1.8005 102° East 325 374 17,500 -1,500 Level FlightAware ADS-B (KSCH)
Mon 03:32:59 AM 50.6121 -1.7851 96° East 332 382 17,300 -2,000 Descending FlightAware ADS-B (LKVR)
Mon 03:33:01 AM 50.6123 -1.7800 87° East 334 384 17,200 -1,500 Descending FlightAware ADS-B
Mon 03:33:03 AM 50.6125 -1.7753 85° East 334 384 17,200  Level FlightAware ADS-B (KSCH)
Mon 03:33:06 AM 50.6132 -1.7693 81° East 337 388 17,200 -1,000 Level FlightAware ADS-B (EGHA)
Mon 03:33:09 AM 50.6143 -1.7600 79° East 338 389 17,100 -1,333 Descending FlightAware ADS-B
Mon 03:33:15 AM 50.6157 -1.7499 77° East 338 389 17,000 -375 Descending FlightAware ADS-B (CYOW)
Mon 03:33:25 AM 50.6198 -1.7210 77° East 332 382 17,000  Level FlightAware ADS-B (EGHH / BOH)
Mon 03:33:35 AM 50.6228 -1.6988 78° East 325 374 17,000  Level FlightAware ADS-B (EGHH / BOH)
Mon 03:33:46 AM 50.6260 -1.6722 79° East 317 365 17,000  Level FlightAware ADS-B
Mon 03:33:52 AM 50.6272 -1.6619 79° East 311 358 17,000 -429 Level FlightAware ADS-B
Mon 03:34:14 AM 50.6331 -1.6118 80° East 300 345 16,800 -480 Descending FlightAware ADS-B (EGHA)
Mon 03:34:17 AM 50.6338 -1.6059 79° East 299 344 16,800 -750 Level FlightAware ADS-B
Mon 03:34:22 AM 50.6349 -1.5953 81° East 298 343 16,700 -1,235 Descending FlightAware ADS-B
Mon 03:34:51 AM 50.6418 -1.5340 80° East 298 343 16,100 -1,313 Descending FlightAware ADS-B
Mon 03:34:54 AM 50.6417 -1.5349 257° West 298 343 16,000 -968 Descending FlightAware ADS-B (EGHS)
Mon 03:35:22 AM 50.6491 -1.4683 80° East 291 335 15,600 -968 Descending FlightAware ADS-B
Mon 03:35:25 AM 50.6499 -1.4610 80° East 291 335 15,500 -1,241 Descending FlightAware ADS-B
Mon 03:35:51 AM 50.6560 -1.4065 80° East 290 334 15,000 -1,161 Descending FlightAware ADS-B
Mon 03:35:56 AM 50.6579 -1.3957 74° East 292 336 14,900 -1,091 Descending FlightAware ADS-B
Mon 03:36:02 AM 50.6610 -1.3854 65° Northeast 293 337 14,800 -1,200 Descending FlightAware ADS-B
Mon 03:36:06 AM 50.6641 -1.3786 55° Northeast 293 337 14,700 -1,800 Descending FlightAware ADS-B (EGHA)
Mon 03:36:12 AM 50.6694 -1.3703 45° Northeast 293 337 14,500 -1,200 Descending FlightAware ADS-B (EGHS)
Mon 03:36:16 AM 50.6750 -1.3640 36° Northeast 292 336 14,500 -923 Level FlightAware ADS-B
Mon 03:36:25 AM 50.6850 -1.3538 33° Northeast 291 335 14,300 -1,000 Descending FlightAware ADS-B
Mon 03:36:28 AM 50.6883 -1.3504 33° Northeast 292 336 14,300 -857 Level FlightAware ADS-B (EGHH / BOH)
Mon 03:36:32 AM 50.6925 -1.3461 33° Northeast 292 336 14,200 -1,500 Descending FlightAware ADS-B
Mon 03:36:36 AM 50.6961 -1.3423 33° Northeast 292 336 14,100 -750 Descending FlightAware ADS-B
Mon 03:36:48 AM 50.7100 -1.3273 34° Northeast 283 326 14,000 -783 Descending FlightAware ADS-B (KSCH)
Mon 03:36:59 AM 50.7218 -1.3141 35° Northeast 281 323 13,800 -1,286 Descending FlightAware ADS-B (KSCH)
Mon 03:37:02 AM 50.7254 -1.3100 36° Northeast 287 330 13,700 -1,500 Descending FlightAware ADS-B
Mon 03:37:11 AM 50.7345 -1.2996 36° Northeast 280 322 13,500 -1,333 Descending FlightAware ADS-B (KSCH)
Mon 03:37:20 AM 50.7443 -1.2884 36° Northeast 280 322 13,300 -1,143 Descending FlightAware ADS-B (EGHH / BOH)
Mon 03:37:32 AM 50.7577 -1.2729 36° Northeast 286 329 13,100 -581 Descending FlightAware ADS-B
Mon 03:37:51 AM 50.7778 -1.2496 36° Northeast 284 327 13,000 -194 Descending FlightAware ADS-B (EGDM)
Mon 03:38:03 AM 50.7903 -1.2353 36° Northeast 287 330 13,000  Level FlightAware ADS-B
Mon 03:38:16 AM 50.8045 -1.2187 36° Northeast 286 329 13,000  Level FlightAware ADS-B
Mon 03:38:25 AM 50.8143 -1.2074 36° Northeast 282 325 13,000  Level FlightAware ADS-B (EGHI / SOU)
Mon 03:38:35 AM 50.8244 -1.1956 36° Northeast 288 331 13,000  Level FlightAware ADS-B
Mon 03:38:38 AM 50.8281 -1.1913 36° Northeast 282 325 13,000  Level FlightAware ADS-B (KSCH)
Mon 03:38:47 AM 50.8376 -1.1802 36° Northeast 282 325 13,000  Level FlightAware ADS-B (LKVR)
Mon 03:39:07 AM 50.8594 -1.1549 36° Northeast 288 331 13,000  Level FlightAware ADS-B
Mon 03:39:11 AM 50.8626 -1.1512 36° Northeast 287 330 13,000  Level FlightAware ADS-B (EGLF / FAB)
Mon 03:39:14 AM 50.8670 -1.1461 36° Northeast 280 322 13,000  Level FlightAware ADS-B (LKVR)
Mon 03:39:19 AM 50.8731 -1.1389 36° Northeast 281 323 13,000  Level FlightAware ADS-B (KPGA)
Mon 03:39:31 AM 50.8843 -1.1259 36° Northeast 282 325 13,000  Level FlightAware ADS-B (EGHH / BOH)
Mon 03:39:38 AM 50.8913 -1.1177 37° Northeast 283 326 13,000  Level FlightAware ADS-B
Mon 03:40:00 AM 50.9146 -1.0904 36° Northeast 287 330 13,000  Level FlightAware ADS-B (EGHH / BOH)
Mon 03:40:04 AM 50.9197 -1.0845 36° Northeast 281 323 13,000  Level FlightAware ADS-B (EGHI / SOU)
Mon 03:40:09 AM 50.9248 -1.0785 37° Northeast 288 331 13,000  Level FlightAware ADS-B
Mon 03:40:13 AM 50.9294 -1.0732 36° Northeast 283 326 13,000  Level FlightAware ADS-B (LKVR)
Mon 03:40:26 AM 50.9432 -1.0573 36° Northeast 286 329 13,000  Level FlightAware ADS-B (EGHA)
Mon 03:40:34 AM 50.9518 -1.0475 36° Northeast 279 321 13,000  Level FlightAware ADS-B (LKVR)
Mon 03:40:39 AM 50.9573 -1.0410 36° Northeast 286 329 13,000  Level FlightAware ADS-B
Mon 03:40:44 AM 50.9626 -1.0350 36° Northeast 288 331 13,000  Level FlightAware ADS-B
Mon 03:40:55 AM 50.9747 -1.0210 36° Northeast 281 323 13,000  Level FlightAware ADS-B (EGHH / BOH)
Mon 03:41:10 AM 50.9897 -1.0036 36° Northeast 285 328 13,000  Level FlightAware ADS-B
Mon 03:41:13 AM 50.9933 -0.9995 36° Northeast 280 322 13,000  Level FlightAware ADS-B (LKVR)
Mon 03:41:24 AM 51.0050 -0.9859 36° Northeast 285 328 13,000  Level FlightAware ADS-B (LKVR)
Mon 03:41:40 AM 51.0217 -0.9665 36° Northeast 283 326 13,000  Level FlightAware ADS-B
Mon 03:41:55 AM 51.0367 -0.9492 36° Northeast 279 321 13,000  Level FlightAware ADS-B (EGKK / LGW)
Mon 03:42:10 AM 51.0535 -0.9302 35° Northeast 277 319 13,000  Level FlightAware ADS-B
Mon 03:42:15 AM 51.0589 -0.9238 37° Northeast 278 320 13,000  Level FlightAware ADS-B
Mon 03:42:22 AM 51.0650 -0.9149 43° Northeast 280 322 13,000  Level FlightAware ADS-B
Mon 03:42:23 AM 51.0659 -0.9133 48° Northeast 275 316 13,000  Level FlightAware ADS-B (LKVR)
Mon 03:42:27 AM 51.0691 -0.9072 50° Northeast 279 321 13,000  Level FlightAware ADS-B
Mon 03:42:30 AM 51.0714 -0.9027 51° Northeast 279 321 13,000  Level FlightAware ADS-B
Mon 03:42:37 AM 51.0769 -0.8912 52° Northeast 273 314 13,000  Level FlightAware ADS-B (EGHH / BOH)
Mon 03:42:47 AM 51.0848 -0.8752 52° Northeast 276 318 13,000  Level FlightAware ADS-B
Mon 03:42:57 AM 51.0933 -0.8584 51° Northeast 279 321 13,000  Level FlightAware ADS-B
Mon 03:43:16 AM 51.1091 -0.8276 51° Northeast 280 322 13,000  Level FlightAware ADS-B
Mon 03:43:27 AM 51.1179 -0.8105 51° Northeast 278 320 13,000  Level FlightAware ADS-B
Mon 03:43:35 AM 51.1252 -0.7964 51° Northeast 279 321 13,000  Level FlightAware ADS-B
Mon 03:43:45 AM 51.1323 -0.7829 50° Northeast 279 321 13,000  Level FlightAware ADS-B
Mon 03:43:57 AM 51.1427 -0.7627 51° Northeast 282 325 13,000  Level FlightAware ADS-B
Mon 03:44:15 AM 51.1567 -0.7356 51° Northeast 281 323 13,000  Level FlightAware ADS-B (EGKK / LGW)
Mon 03:44:28 AM 51.1680 -0.7138 50° Northeast 280 322 13,000  Level FlightAware ADS-B
Mon 03:44:30 AM 51.1689 -0.7121 50° Northeast 279 321 13,000  Level FlightAware ADS-B (EGDM)
Mon 03:44:36 AM 51.1745 -0.7012 51° Northeast 278 320 13,000 -600 Level FlightAware ADS-B (LKVR)
Mon 03:44:40 AM 51.1782 -0.6941 50° Northeast 278 320 12,900 -1,714 Descending FlightAware ADS-B (EGDM)
Mon 03:44:43 AM 51.1802 -0.6902 51° Northeast 277 319 12,800 -632 Descending FlightAware ADS-B
Mon 03:44:59 AM 51.1932 -0.6650 51° Northeast 278 320 12,700 -789 Descending FlightAware ADS-B
Mon 03:45:21 AM 51.2151 -0.6224 51° Northeast 277 319 12,300 -800 Descending FlightAware ADS-B
Mon 03:45:29 AM 51.2179 -0.6168 51° Northeast 277 319 12,300 -615 Level FlightAware ADS-B
Mon 03:46:00 AM 51.2428 -0.5685 51° Northeast 277 319 11,900 -857 Descending FlightAware ADS-B
Mon 03:46:04 AM 51.2454 -0.5634 50° Northeast 278 320 11,800 -800 Descending FlightAware ADS-B
Mon 03:46:30 AM 51.2667 -0.5219 51° Northeast 275 316 11,500 -857 Descending FlightAware ADS-B
Mon 03:46:32 AM 51.2688 -0.5178 50° Northeast 275 316 11,400  Descending FlightAware ADS-B
Mon 03:46:37 AM 51.2657 -0.5238 231° Southwest 275 316 11,500 -500 Climbing FlightAware ADS-B (EGLF / FAB)
Mon 03:46:44 AM 51.2787 -0.4985 51° Northeast 270 311 11,300 -1,043 Descending FlightAware ADS-B (EGHI / SOU)
Mon 03:47:00 AM 51.2911 -0.4743 51° Northeast 274 315 11,100 -1,000 Descending FlightAware ADS-B
Mon 03:47:02 AM 51.2876 -0.4812 231° Southwest 274 315 11,000 -923 Descending FlightAware ADS-B
Mon 03:47:13 AM 51.3010 -0.4549 51° Northeast 274 315 10,900 -720 Descending FlightAware ADS-B
Mon 03:47:27 AM 51.3130 -0.4316 51° Northeast 276 318 10,700 -706 Descending FlightAware ADS-B (KSCH)
Mon 03:47:30 AM 51.3155 -0.4266 51° Northeast 276 318 10,700 -923 Level FlightAware ADS-B
Mon 03:47:40 AM 51.3234 -0.4111 51° Northeast 276 318 10,500 -800 Descending FlightAware ADS-B
Mon 03:47:45 AM 51.3267 -0.4039 54° Northeast 276 318 10,500 -750 Level FlightAware ADS-B
Mon 03:47:48 AM 51.3291 -0.3974 59° Northeast 276 318 10,400 -1,000 Descending FlightAware ADS-B
Mon 03:47:51 AM 51.3285 -0.3991 240° Southwest 277 319 10,400 -1,000 Level FlightAware ADS-B
Mon 03:47:54 AM 51.3319 -0.3866 67° East 277 319 10,300 -750 Descending FlightAware ADS-B
Mon 03:47:59 AM 51.3334 -0.3763 77° East 277 319 10,300 -667 Level FlightAware ADS-B
Mon 03:48:03 AM 51.3338 -0.3683 85° East 275 316 10,200 -667 Descending FlightAware ADS-B
Mon 03:48:08 AM 51.3334 -0.3594 94° East 277 319 10,200 -1,000 Level FlightAware ADS-B (EGHH / BOH)
Mon 03:48:09 AM 51.3332 -0.3574 100° East 272 313 10,100 -1,500 Descending FlightAware ADS-B
Mon 03:48:12 AM 51.3321 -0.3504 104° East 269 310 10,100  Level FlightAware ADS-B
Mon 03:48:15 AM 51.3321 -0.3504 180° South 266 306 10,100 -1,500 Level FlightAware ADS-B
Mon 03:48:16 AM 51.3302 -0.3430 112° Southeast 266 306 10,000 -1,500 Descending FlightAware ADS-B
Mon 03:48:19 AM 51.3284 -0.3378 119° Southeast 262 302 10,000  Level FlightAware ADS-B
Mon 03:48:21 AM 51.3270 -0.3344 124° Southeast 260 299 10,000 -1,000 Level FlightAware ADS-B
Mon 03:48:25 AM 51.3245 -0.3296 129° Southeast 258 297 9,900 -857 Descending FlightAware ADS-B
Mon 03:48:28 AM 51.3216 -0.3249 135° Southeast 254 292 9,900  Level FlightAware ADS-B
Mon 03:48:31 AM 51.3189 -0.3214 141° Southeast 250 288 9,900 -1,200 Level FlightAware ADS-B
Mon 03:48:33 AM 51.3174 -0.3197 144° Southeast 250 288 9,800 -750 Descending FlightAware ADS-B
Mon 03:48:39 AM 51.3119 -0.3142 148° Southeast 246 283 9,800 -857 Level FlightAware ADS-B
Mon 03:48:40 AM 51.3179 -0.3203 327° Northwest 247 284 9,700 -750 Descending FlightAware ADS-B
Mon 03:48:55 AM 51.2955 -0.2983 148° Southeast 246 283 9,600 -706 Descending FlightAware ADS-B
Mon 03:48:57 AM 51.2945 -0.2972 148° Southeast 247 284 9,500 -1,000 Descending FlightAware ADS-B (EGKK / LGW)
Mon 03:49:07 AM 51.2841 -0.2873 149° Southeast 247 284 9,400 -500 Descending FlightAware ADS-B
Mon 03:49:09 AM 51.2832 -0.2866 152° Southeast 246 283 9,400 -1,000 Level FlightAware ADS-B (KPGA)
Mon 03:49:13 AM 51.2785 -0.2830 155° Southeast 244 281 9,300 -857 Descending FlightAware ADS-B
Mon 03:49:16 AM 51.2749 -0.2812 162° South 243 280 9,300 -857 Level FlightAware ADS-B
Mon 03:49:20 AM 51.2701 -0.2796 168° South 237 273 9,200 -1,200 Descending FlightAware ADS-B
Mon 03:49:21 AM 51.2696 -0.2795 173° South 237 273 9,200 -1,000 Level FlightAware ADS-B
Mon 03:49:26 AM 51.2643 -0.2789 176° South 233 268 9,100 -750 Descending FlightAware ADS-B
Mon 03:49:29 AM 51.2616 -0.2792 183° South 232 267 9,100  Level FlightAware ADS-B (KPGA)
Mon 03:49:30 AM 51.2600 -0.2794 186° South 231 266 9,100 -1,500 Level FlightAware ADS-B
Mon 03:49:33 AM 51.2566 -0.2803 189° South 229 264 9,000 -1,000 Descending FlightAware ADS-B
Mon 03:49:36 AM 51.2534 -0.2817 195° South 227 261 9,000  Level FlightAware ADS-B
Mon 03:49:38 AM 51.2518 -0.2824 197° South 227 261 9,000 -1,500 Level FlightAware ADS-B (EGKK / LGW)
Mon 03:49:40 AM 51.2493 -0.2841 203° Southwest 225 259 8,900 -1,200 Descending FlightAware ADS-B
Mon 03:49:43 AM 51.2465 -0.2863 206° Southwest 225 259 8,900 -750 Level FlightAware ADS-B
Mon 03:49:48 AM 51.2422 -0.2906 212° Southwest 225 259 8,800 -1,000 Descending FlightAware ADS-B
Mon 03:49:49 AM 51.2411 -0.2920 217° Southwest 225 259 8,800  Level FlightAware ADS-B (EGHI / SOU)
Mon 03:49:52 AM 51.2392 -0.2947 222° Southwest 226 260 8,800 -667 Level FlightAware ADS-B
Mon 03:49:58 AM 51.2352 -0.3015 227° Southwest 225 259 8,700 -1,000 Descending FlightAware ADS-B
Mon 03:50:04 AM 51.2316 -0.3102 237° Southwest 226 260 8,600 -600 Descending FlightAware ADS-B
Mon 03:50:08 AM 51.2298 -0.3166 246° West 227 261 8,600 -857 Level FlightAware ADS-B
Mon 03:50:11 AM 51.2289 -0.3205 250° West 228 262 8,500 -750 Descending FlightAware ADS-B
Mon 03:50:16 AM 51.2276 -0.3301 258° West 230 265 8,500 -750 Level FlightAware ADS-B
Mon 03:50:19 AM 51.2276 -0.3311 266° West 230 265 8,400 -1,500 Descending FlightAware ADS-B
Mon 03:50:20 AM 51.2273 -0.3356 265° West 231 266 8,400  Level FlightAware ADS-B
Mon 03:50:24 AM 51.2274 -0.3424 271° West 233 268 8,400 -857 Level FlightAware ADS-B
Mon 03:50:27 AM 51.2278 -0.3478 276° West 235 270 8,300 -1,200 Descending FlightAware ADS-B (EGKK / LGW)
Mon 03:50:29 AM 51.2282 -0.3513 281° West 235 270 8,300  Level FlightAware ADS-B
Mon 03:50:32 AM 51.2292 -0.3569 286° West 237 273 8,300 -857 Level FlightAware ADS-B
Mon 03:50:36 AM 51.2308 -0.3633 292° West 239 275 8,200 -857 Descending FlightAware ADS-B
Mon 03:50:39 AM 51.2324 -0.3680 299° West 241 277 8,200 -1,200 Level FlightAware ADS-B
Mon 03:50:41 AM 51.2330 -0.3696 299° West 242 278 8,100 -1,200 Descending FlightAware ADS-B
Mon 03:50:44 AM 51.2357 -0.3756 306° West 244 281 8,100  Level FlightAware ADS-B
Mon 03:50:47 AM 51.2380 -0.3798 311° West 246 283 8,100  Level FlightAware ADS-B
Mon 03:50:48 AM 51.2387 -0.3809 316° Northwest 247 284 8,100 -1,500 Level FlightAware ADS-B (KSCH)
Mon 03:50:51 AM 51.2413 -0.3844 319° Northwest 249 287 8,000 -667 Descending FlightAware ADS-B
Mon 03:50:57 AM 51.2473 -0.3909 326° Northwest 252 290 8,000  Level FlightAware ADS-B
Mon 03:51:01 AM 51.2507 -0.3942 329° Northwest 253 291 8,000  Level FlightAware ADS-B
Mon 03:51:08 AM 51.2582 -0.4013 329° Northwest 247 284 8,000  Level FlightAware ADS-B (EGKK / LGW)
Mon 03:51:20 AM 51.2698 -0.4124 329° Northwest 252 290 8,000  Level FlightAware ADS-B
Mon 03:51:24 AM 51.2737 -0.4162 329° Northwest 244 281 8,000  Level FlightAware ADS-B (KSCH)
Mon 03:51:36 AM 51.2854 -0.4275 329° Northwest 251 289 8,000  Level FlightAware ADS-B
Mon 03:51:40 AM 51.2859 -0.4280 325° Northwest 251 289 8,000  Level FlightAware ADS-B
Mon 03:51:50 AM 51.2993 -0.4411 329° Northwest 251 289 8,000  Level FlightAware ADS-B
Mon 03:51:51 AM 51.3003 -0.4420 328° Northwest 251 289 8,000  Level FlightAware ADS-B
Mon 03:51:57 AM 51.3067 -0.4480 330° Northwest 252 290 8,000  Level FlightAware ADS-B
Mon 03:51:59 AM 51.3086 -0.4496 332° Northwest 254 292 8,000  Level FlightAware ADS-B (EGHI / SOU)
Mon 03:52:04 AM 51.3143 -0.4533 338° Northwest 256 295 8,000  Level FlightAware ADS-B
Mon 03:52:07 AM 51.3171 -0.4544 346° North 258 297 8,000  Level FlightAware ADS-B (EGLF / FAB)
Mon 03:52:12 AM 51.3234 -0.4557 352° North 262 302 8,000  Level FlightAware ADS-B
Mon 03:52:14 AM 51.3259 -0.4559 357° North 255 293 8,000  Level FlightAware ADS-B (KSCH)
Mon 03:52:18 AM 51.3273 -0.4559 360° North 265 305 8,000  Level FlightAware ADS-B (KPGA)
Mon 03:52:19 AM 51.3322 -0.4560 359° North 265 305 8,000  Level FlightAware ADS-B
Mon 03:52:26 AM 51.3401 -0.4558 North 258 297 8,000  Level FlightAware ADS-B (KSCH)
Mon 03:52:30 AM 51.3452 -0.4556 North 266 306 8,000  Level FlightAware ADS-B
Mon 03:52:34 AM 51.3507 -0.4555 North 265 305 8,000  Level FlightAware ADS-B
Mon 03:52:36 AM 51.3526 -0.4554 North 257 296 8,000  Level FlightAware ADS-B (EGKK / LGW)
Mon 03:52:50 AM 51.3697 -0.4550 North 265 305 8,000  Level FlightAware ADS-B
Mon 03:52:56 AM 51.3746 -0.4548 North 266 306 8,000  Level FlightAware ADS-B (KPGA)
Mon 03:52:57 AM 51.3783 -0.4546 North 266 306 8,000  Level FlightAware ADS-B
Mon 03:53:00 AM 51.3820 -0.4541 North 266 306 8,000  Level FlightAware ADS-B
Mon 03:53:03 AM 51.3858 -0.4531 North 267 307 8,000  Level FlightAware ADS-B
Mon 03:53:04 AM 51.3872 -0.4527 12° North 268 308 8,000  Level FlightAware ADS-B (KSCH)
Mon 03:53:07 AM 51.3907 -0.4509 17° North 269 310 8,000  Level FlightAware ADS-B
Mon 03:53:10 AM 51.3946 -0.4481 24° Northeast 269 310 8,000  Level FlightAware ADS-B
Mon 03:53:14 AM 51.3983 -0.4447 30° Northeast 270 311 8,000  Level FlightAware ADS-B
Mon 03:53:16 AM 51.3940 -0.4487 210° Southwest 270 311 8,000  Level FlightAware ADS-B
Mon 03:53:18 AM 51.4023 -0.4400 33° Northeast 270 311 8,000  Level FlightAware ADS-B
Mon 03:53:20 AM 51.4041 -0.4372 43° Northeast 270 311 8,000  Level FlightAware ADS-B (EGLC / LCY)
Mon 03:53:23 AM 51.4068 -0.4326 47° Northeast 270 311 8,000  Level FlightAware ADS-B
Mon 03:53:26 AM 51.4093 -0.4274 53° Northeast 269 310 8,000  Level FlightAware ADS-B
Mon 03:53:28 AM 51.4099 -0.4258 57° Northeast 269 310 8,000  Level FlightAware ADS-B (EGKK / LGW)
Mon 03:53:30 AM 51.4115 -0.4211 62° Northeast 267 307 8,000  Level FlightAware ADS-B
Mon 03:53:34 AM 51.4134 -0.4142 66° East 265 305 8,000  Level FlightAware ADS-B
Mon 03:53:38 AM 51.4148 -0.4057 75° East 262 302 8,000  Level FlightAware ADS-B
Mon 03:53:40 AM 51.4151 -0.4025 82° East 262 302 8,000  Level FlightAware ADS-B (EGLC / LCY)
Mon 03:53:43 AM 51.4154 -0.3974 84° East 260 299 8,000  Level FlightAware ADS-B
Mon 03:53:46 AM 51.4152 -0.3907 93° East 258 297 8,000  Level FlightAware ADS-B
Mon 03:53:47 AM 51.4152 -0.4005 270° West 264 304 8,000  Level FlightAware ADS-B (KPGA)
Mon 03:53:51 AM 51.4143 -0.3817 95° East 255 293 8,000  Level FlightAware ADS-B
Mon 03:53:54 AM 51.4132 -0.3762 108° East 253 291 8,000  Level FlightAware ADS-B
Mon 03:53:55 AM 51.4130 -0.3752 105° East 252 290 8,000  Level FlightAware ADS-B (KPGA)
Mon 03:53:58 AM 51.4117 -0.3700 112° Southeast 251 289 8,000  Level FlightAware ADS-B
Mon 03:54:01 AM 51.4101 -0.3648 116° Southeast 251 289 8,000  Level FlightAware ADS-B
Mon 03:54:03 AM 51.4091 -0.3614 116° Southeast 250 288 8,000  Level FlightAware ADS-B (KSCH)
Mon 03:54:16 AM 51.4017 -0.3389 118° Southeast 252 290 8,000  Level FlightAware ADS-B
Mon 03:54:17 AM 51.4017 -0.3389 180° South 259 298 8,000  Level FlightAware ADS-B
Mon 03:54:23 AM 51.3982 -0.3283 118° Southeast 251 289 8,000  Level FlightAware ADS-B
Mon 03:54:32 AM 51.3934 -0.3136 118° Southeast 250 288 8,000  Level FlightAware ADS-B
Mon 03:54:38 AM 51.3899 -0.3029 118° Southeast 251 289 8,000  Level FlightAware ADS-B (EGKK / LGW)
Mon 03:54:43 AM 51.3876 -0.2960 118° Southeast 250 288 8,000  Level FlightAware ADS-B
Mon 03:54:46 AM 51.3858 -0.2898 115° Southeast 251 289 8,000  Level FlightAware ADS-B
Mon 03:54:50 AM 51.3842 -0.2824 109° East 252 290 8,000  Level FlightAware ADS-B
Mon 03:54:52 AM 51.3841 -0.2815 104° East 253 291 8,000  Level FlightAware ADS-B
Mon 03:54:54 AM 51.3834 -0.2769 103° East 253 291 8,000  Level FlightAware ADS-B
Mon 03:54:59 AM 51.3828 -0.2673 96° East 256 295 8,000  Level FlightAware ADS-B
Mon 03:55:03 AM 51.3826 -0.2584 92° East 257 296 8,000  Level FlightAware ADS-B
Mon 03:55:05 AM 51.3827 -0.2550 89° East 259 298 8,000  Level FlightAware ADS-B
Mon 03:55:11 AM 51.3827 -0.2441 90° East 262 302 8,000  Level FlightAware ADS-B
Mon 03:55:18 AM 51.3828 -0.2296 90° East 251 289 8,000  Level FlightAware ADS-B
Mon 03:55:20 AM 51.3828 -0.2259 89° East 261 300 8,000  Level FlightAware ADS-B
Mon 03:55:21 AM 51.3828 -0.2240 91° East 260 299 8,000 -400 Level FlightAware ADS-B
Mon 03:55:35 AM 51.3827 -0.1971 90° East 259 298 7,900 -400 Descending FlightAware ADS-B
Mon 03:55:36 AM 51.3827 -0.1952 89° East 260 299 7,900 -750 Level FlightAware ADS-B
Mon 03:55:51 AM 51.3826 -0.1667 90° East 259 298 7,700 -857 Descending FlightAware ADS-B
Mon 03:56:04 AM 51.3826 -0.1419 90° East 256 295 7,500 -750 Descending FlightAware ADS-B
Mon 03:56:07 AM 51.3825 -0.1382 91° East 255 293 7,500 -400 Level FlightAware ADS-B (KSCH)
Mon 03:56:19 AM 51.3825 -0.1134 90° East 249 287 7,400 -286 Descending FlightAware ADS-B
Mon 03:56:28 AM 51.3825 -0.0982 90° East 246 283 7,400 -375 Level FlightAware ADS-B
Mon 03:56:35 AM 51.3825 -0.0860 90° East 243 280 7,300 -462 Descending FlightAware ADS-B
Mon 03:56:41 AM 51.3826 -0.0739 89° East 239 275 7,300 -545 Level FlightAware ADS-B
Mon 03:56:46 AM 51.3831 -0.0649 85° East 238 274 7,200 -600 Descending FlightAware ADS-B
Mon 03:56:51 AM 51.3838 -0.0570 82° East 236 272 7,200  Level FlightAware ADS-B
Mon 03:56:56 AM 51.3849 -0.0491 77° East 234 269 7,200 -750 Level FlightAware ADS-B
Mon 03:56:59 AM 51.3858 -0.0428 77° East 232 267 7,100 -1,200 Descending FlightAware ADS-B
Mon 03:57:01 AM 51.3860 -0.0413 76° East 231 266 7,100  Level FlightAware ADS-B
Mon 03:57:15 AM 51.3899 -0.0174 75° East 224 258 7,100 -353 Level FlightAware ADS-B
Mon 03:57:18 AM 51.3895 -0.0197 254° West 224 258 7,000 -1,500 Descending FlightAware ADS-B
Mon 03:57:19 AM 51.3911 -0.0117 72° East 224 258 7,000  Level FlightAware ADS-B
Mon 03:57:21 AM 51.3916 -0.0101 65° Northeast 223 257 7,000  Level FlightAware ADS-B
Mon 03:57:22 AM 51.3927 -0.0063 65° Northeast 223 257 7,000  Level FlightAware ADS-B
Mon 03:57:26 AM 51.3950 -0.0010 55° Northeast 222 255 7,000  Level FlightAware ADS-B
Mon 03:57:27 AM 51.3956 0.0003 51° Northeast 221 254 7,000  Level FlightAware ADS-B
Mon 03:57:30 AM 51.3973 0.0031 47° Northeast 220 253 7,000 -1,000 Level FlightAware ADS-B
Mon 03:57:33 AM 51.4000 0.0068 40° Northeast 217 250 6,900 -1,500 Descending FlightAware ADS-B
Mon 03:57:34 AM 51.4004 0.0072 36° Northeast 218 251 6,900  Level FlightAware ADS-B
Mon 03:57:37 AM 51.4034 0.0101 31° Northeast 216 249 6,900  Level FlightAware ADS-B
Mon 03:57:38 AM 51.4040 0.0105 23° Northeast 215 247 6,900 -2,000 Level FlightAware ADS-B
Mon 03:57:40 AM 51.4062 0.0120 23° Northeast 215 247 6,800  Descending FlightAware ADS-B
Mon 03:57:45 AM 51.4091 0.0134 17° North 214 246 6,900 -1,000 Climbing FlightAware ADS-B
Mon 03:57:46 AM 51.4120 0.0142 North 212 244 6,700 -4,000 Descending FlightAware ADS-B
Mon 03:57:48 AM 51.4125 0.0143 North 212 244 6,700 -1,200 Level FlightAware ADS-B (KPGA)
Mon 03:57:51 AM 51.4162 0.0143 North 210 242 6,600 -1,500 Descending FlightAware ADS-B
Mon 03:57:52 AM 51.4130 0.0143 180° South 211 243 6,600 -1,500 Level FlightAware ADS-B
Mon 03:57:55 AM 51.4205 0.0131 354° North 208 239 6,500 -3,000 Descending FlightAware ADS-B
Mon 03:57:56 AM 51.4216 0.0127 346° North 208 239 6,400 -1,200 Descending FlightAware ADS-B
Mon 03:58:00 AM 51.4249 0.0105 337° Northwest 206 237 6,400 -1,000 Level FlightAware ADS-B
Mon 03:58:02 AM 51.4261 0.0094 331° Northwest 203 234 6,300 -1,200 Descending FlightAware ADS-B
Mon 03:58:05 AM 51.4289 0.0062 324° Northwest 201 231 6,300 -1,200 Level FlightAware ADS-B
Mon 03:58:07 AM 51.4289 0.0062 180° South 199 229 6,200 -1,500 Descending FlightAware ADS-B (KPGA)
Mon 03:58:09 AM 51.4313 0.0024 316° Northwest 199 229 6,200 -1,500 Level FlightAware ADS-B
Mon 03:58:11 AM 51.4322 0.0006 308° West 196 226 6,100 -1,200 Descending FlightAware ADS-B
Mon 03:58:14 AM 51.4341 -0.0037 306° West 194 223 6,100 -750 Level FlightAware ADS-B
Mon 03:58:19 AM 51.4363 -0.0097 300° West 191 220 6,000 -1,500 Descending FlightAware ADS-B
Mon 03:58:22 AM 51.4373 -0.0128 298° West 191 220 5,900 -1,333 Descending FlightAware ADS-B
Mon 03:58:37 AM 51.4434 -0.0324 296° West 190 219 5,600 -1,125 Descending FlightAware ADS-B
Mon 03:58:38 AM 51.4437 -0.0332 299° West 190 219 5,600  Level FlightAware ADS-B
Mon 03:58:42 AM 51.4443 -0.0351 296° West 190 219 5,600 -857 Level FlightAware ADS-B
Mon 03:58:52 AM 51.4492 -0.0516 296° West 189 217 5,400 -1,125 Descending FlightAware ADS-B
Mon 03:58:58 AM 51.4514 -0.0586 296° West 188 216 5,300 -1,200 Descending FlightAware ADS-B
Mon 03:59:07 AM 51.4550 -0.0705 296° West 188 216 5,100 -1,125 Descending FlightAware ADS-B
Mon 03:59:14 AM 51.4565 -0.0756 296° West 188 216 5,000 -1,059 Descending FlightAware ADS-B
Mon 03:59:24 AM 51.4612 -0.0912 296° West 186 214 4,800 -1,286 Descending FlightAware ADS-B
Mon 03:59:28 AM 51.4623 -0.0958 291° West 183 211 4,700 -1,000 Descending FlightAware ADS-B
Mon 03:59:30 AM 51.4622 -0.0951 104° East 181 208 4,700 -1,000 Level FlightAware ADS-B (EGLC / LCY)
Mon 03:59:34 AM 51.4636 -0.1035 285° West 179 206 4,600 -667 Descending FlightAware ADS-B
Mon 03:59:39 AM 51.4643 -0.1107 279° West 176 203 4,600 -1,000 Level FlightAware ADS-B
Mon 03:59:46 AM 51.4648 -0.1176 276° West 174 200 4,400 -1,333 Descending FlightAware ADS-B
Mon 03:59:48 AM 51.4650 -0.1223 275° West 173 199 4,400 -1,500 Level FlightAware ADS-B
Mon 03:59:50 AM 51.4651 -0.1246 274° West 173 199 4,300 -1,091 Descending FlightAware ADS-B (EGLC / LCY)
Mon 03:59:59 AM 51.4654 -0.1361 273° West 170 196 4,200 -600 Descending FlightAware ADS-B
Mon 04:00:10 AM 51.4655 -0.1488 270° West 164 189 4,100 -375 Descending FlightAware ADS-B (KPGA)
Mon 04:00:15 AM 51.4655 -0.1558 271° West 160 184 4,100 -667 Level FlightAware ADS-B
Mon 04:00:28 AM 51.4655 -0.1647 270° West 153 176 3,900 -1,125 Descending FlightAware ADS-B
Mon 04:00:31 AM 51.4655 -0.1736 270° West 153 176 3,800 -1,000 Descending FlightAware ADS-B
Mon 04:00:34 AM 51.4655 -0.1775 271° West 183 211 3,800 -857 Level FlightAware ADS-B
Mon 04:00:38 AM 51.4655 -0.1721 91° East 151 174 3,700 -1,000 Descending FlightAware ADS-B
Mon 04:00:46 AM 51.4655 -0.1907 270° West 150 173 3,600 -1,091 Descending FlightAware ADS-B
Mon 04:00:49 AM 51.4655 -0.1937 270° West 150 173 3,500 -1,125 Descending FlightAware ADS-B (EGLC / LCY)
Mon 04:01:02 AM 51.4655 -0.2082 270° West 149 171 3,300 -1,200 Descending FlightAware ADS-B
Mon 04:01:09 AM 51.4654 -0.2154 269° West 148 170 3,100 -1,412 Descending FlightAware ADS-B (EGLC / LCY)
Mon 04:01:19 AM 51.4654 -0.2272 270° West 146 168 2,900 -900 Descending FlightAware ADS-B
Mon 04:01:29 AM 51.4654 -0.2338 270° West 142 163 2,800 -1,043 Descending FlightAware ADS-B (EGLC / LCY)
Mon 04:01:42 AM 51.4654 -0.2514 270° West 146 168 2,500 -857 Descending FlightAware ADS-B
Mon 04:01:50 AM 51.4654 -0.2593 270° West 144 166 2,500 -720 Level FlightAware ADS-B (EGLC / LCY)
Mon 04:02:07 AM 51.4654 -0.2774 270° West 144 166 2,200 -882 Descending FlightAware ADS-B
Mon 04:02:24 AM 51.4654 -0.2952 270° West 137 158 2,000 -750 Descending FlightAware ADS-B (KPGA)
Mon 04:02:39 AM 51.4653 -0.3089 270° West 125 144 1,800 -545 Descending FlightAware ADS-B (EGLC / LCY)
Mon 04:02:57 AM 51.4653 -0.3193 270° West 122 140 1,700 -514 Descending FlightAware ADS-B
Mon 04:03:14 AM 51.4652 -0.3316 270° West 124 143 1,500 -750 Descending FlightAware ADS-B
Mon 04:03:29 AM 51.4652 -0.3509 270° West 125 144 1,300 -769 Descending FlightAware ADS-B (EGLC / LCY)
Mon 04:03:53 AM 51.4651 -0.3764 270° West 124 143 1,000 -800 Descending FlightAware ADS-B
Mon 04:04:14 AM 51.4651 -0.3975 270° West 130 150 700 -769 Descending FlightAware ADS-B
Mon 04:04:32 AM 51.4651 -0.3918 90° East 129 148 500 -529 Descending FlightAware ADS-B (EGLF / FAB)
Mon 04:04:48 AM 51.4650 -0.4284 270° West 132 152 400 -154 Descending FlightAware ADS-B
Mon 04:05:11 AM 51.4651 -0.3918 90° East 129 148 400  Level FlightAware ADS-B (EGLF / FAB)

Login

Don't have an account? Register now (free) for customized features, flight alerts, and more!